Ethridge, Tennessee
Current Conditions -  °F | °C
As of 7:53 AM on Monday 24 Nov 2014 (Local Time) from KMSL Reporting Station
Broken Clouds Broken Clouds  
Wind Chill: 59°   Ceiling: 4700
Heat Index: 59°   Visibility: 10mi
Dew Point: 47°   Wind: 17mph
Humidity: 64%   Direction: 250°WSW
Pressure: 29.74"   Gusts: 24mph
Location:  35.32°N, 87.3°W
Report Text: KMSL 241353Z AUTO 25015G21KT 10SM SCT040 BKN047 15/08 A2974 RMK AO2 PK WND 26030/1314 SLP067 T01500083
Loading
Personal Weather Stations






























Interactive Weather Map New forecast layout! Learn more

10-Day Weather Forecast

Advertisements
Track Severe Weather on mobile